createdAt,value
2023-03-29T00:03:05.600Z,100282.63
2023-03-29T00:06:32.073Z,100295.44
2023-03-29T00:09:57.076Z,100295.44
2023-03-29T00:13:24.490Z,100291.16
2023-03-29T00:16:49.052Z,100296.28
2023-03-29T00:20:14.751Z,100294.56
2023-03-29T00:23:39.069Z,100303.97
2023-03-29T00:27:03.802Z,100307.41
2023-03-29T00:30:30.040Z,100303.16
2023-03-29T00:33:53.611Z,100299.78
2023-03-29T00:37:16.991Z,100304.09
2023-03-29T00:40:47.419Z,100304.97
2023-03-29T00:44:45.607Z,100283.66
2023-03-29T00:48:12.890Z,100305.00
2023-03-29T00:51:40.846Z,100306.72
2023-03-29T00:55:08.615Z,100305.03
2023-03-29T00:58:38.030Z,100296.50
2023-03-29T01:02:06.020Z,100310.13
2023-03-29T01:05:35.429Z,100311.00
2023-03-29T01:09:02.679Z,100309.28
2023-03-29T01:12:31.782Z,100310.97
2023-03-29T01:15:56.946Z,100320.38
2023-03-29T01:19:27.022Z,100318.69
2023-03-29T01:23:09.032Z,100322.09
2023-03-29T01:26:43.046Z,100301.59
2023-03-29T01:30:15.840Z,100325.50
2023-03-29T01:33:45.251Z,100319.53
2023-03-29T01:37:16.901Z,100321.25
2023-03-29T01:40:42.389Z,100336.59
2023-03-29T01:44:09.794Z,100337.47
2023-03-29T01:47:41.804Z,100344.31
2023-03-29T01:51:09.917Z,100340.91
2023-03-29T01:54:39.921Z,100341.75
2023-03-29T01:58:05.703Z,100331.50
2023-03-29T02:01:34.188Z,100341.75
2023-03-29T02:05:01.140Z,100341.75
2023-03-29T02:08:25.840Z,100340.03
2023-03-29T02:11:51.156Z,100313.53
2023-03-29T02:15:16.921Z,100322.06
2023-03-29T02:18:41.294Z,100342.53
2023-03-29T02:22:12.427Z,100340.81
2023-03-29T02:25:38.260Z,100345.06
2023-03-29T02:29:01.891Z,100344.25
2023-03-29T02:32:33.399Z,100351.03
2023-03-29T02:36:02.543Z,100357.00
2023-03-29T02:39:30.059Z,100352.72
2023-03-29T02:42:53.923Z,100354.44
2023-03-29T02:46:21.003Z,100354.41
2023-03-29T02:49:45.831Z,100354.44
2023-03-29T02:53:14.301Z,100330.47
2023-03-29T02:56:47.124Z,100351.84
2023-03-29T03:00:12.963Z,100356.94
2023-03-29T03:03:36.709Z,100336.41
2023-03-29T03:07:00.387Z,100354.34
2023-03-29T03:10:24.021Z,100360.31
2023-03-29T03:13:48.748Z,100354.31
2023-03-29T03:17:12.125Z,100363.75
2023-03-29T03:20:35.992Z,100363.72
2023-03-29T03:23:59.878Z,100368.00
2023-03-29T03:27:24.991Z,100365.47
2023-03-29T03:30:52.660Z,100372.25
2023-03-29T03:34:15.820Z,100354.31
2023-03-29T03:37:41.138Z,100347.50
2023-03-29T03:41:05.586Z,100371.41
2023-03-29T03:44:29.819Z,100385.03
2023-03-29T03:47:56.321Z,100391.88
2023-03-29T03:51:19.631Z,100395.25
2023-03-29T03:54:44.005Z,100401.25
2023-03-29T03:58:08.835Z,100395.25
2023-03-29T04:01:32.706Z,100394.44
2023-03-29T04:04:57.817Z,100409.81
2023-03-29T04:08:22.929Z,100403.84
2023-03-29T04:11:47.832Z,100391.91
2023-03-29T04:15:13.021Z,100399.59
2023-03-29T04:18:37.170Z,100398.75
2023-03-29T04:22:02.252Z,100402.13
2023-03-29T04:25:25.926Z,100403.00
2023-03-29T04:28:49.702Z,100411.56
2023-03-29T04:32:12.871Z,100410.72
2023-03-29T04:35:36.077Z,100395.34
2023-03-29T04:39:03.192Z,100413.31
2023-03-29T04:42:26.871Z,100406.47
2023-03-29T04:45:50.137Z,100424.44
2023-03-29T04:49:14.074Z,100426.16
2023-03-29T04:52:38.822Z,100421.91
2023-03-29T04:56:04.057Z,100427.03
2023-03-29T04:59:28.242Z,100416.84
2023-03-29T05:02:51.408Z,100413.44
2023-03-29T05:06:14.549Z,100420.31
2023-03-29T05:09:39.064Z,100405.78
2023-03-29T05:13:04.978Z,100418.63
2023-03-29T05:16:31.094Z,100416.91
2023-03-29T05:19:55.307Z,100425.47
2023-03-29T05:23:19.902Z,100423.75
2023-03-29T05:26:43.688Z,100426.34
2023-03-29T05:30:09.713Z,100428.91
2023-03-29T05:33:34.088Z,100425.53
2023-03-29T05:37:00.032Z,100430.63
2023-03-29T05:40:26.470Z,100432.34
2023-03-29T05:43:49.550Z,100428.94
2023-03-29T05:47:14.031Z,100424.69
2023-03-29T05:50:39.244Z,100433.25
2023-03-29T05:54:02.823Z,100428.94
2023-03-29T05:57:26.326Z,100441.81
2023-03-29T06:00:50.664Z,100433.22
2023-03-29T06:04:15.961Z,100440.06
2023-03-29T06:07:40.704Z,100438.38
2023-03-29T06:11:06.479Z,100438.38
2023-03-29T06:14:30.411Z,100451.19
2023-03-29T06:17:53.599Z,100453.75
2023-03-29T06:21:19.504Z,100449.50
2023-03-29T06:24:43.284Z,100452.06
2023-03-29T06:28:07.102Z,100458.88
2023-03-29T06:31:31.985Z,100459.75
2023-03-29T06:34:57.116Z,100465.72
2023-03-29T06:38:23.221Z,100462.31
2023-03-29T06:41:46.995Z,100471.72
2023-03-29T06:45:12.001Z,100473.41
2023-03-29T06:48:36.112Z,100475.13
2023-03-29T06:52:01.004Z,100469.13
2023-03-29T06:55:28.783Z,100471.72
2023-03-29T06:58:52.242Z,100474.25
2023-03-29T07:02:18.383Z,100470.84
2023-03-29T07:05:43.282Z,100474.22
2023-03-29T07:09:07.433Z,100482.75
2023-03-29T07:12:33.291Z,100476.75
2023-03-29T07:15:56.791Z,100481.03
2023-03-29T07:19:20.125Z,100468.16
2023-03-29T07:22:44.345Z,100478.44
2023-03-29T07:26:10.452Z,100465.63
2023-03-29T07:29:37.309Z,100471.56
2023-03-29T07:33:00.379Z,100469.00
2023-03-29T07:36:24.869Z,100477.59
2023-03-29T07:39:49.131Z,100477.59
2023-03-29T07:43:14.167Z,100482.72
2023-03-29T07:46:40.464Z,100486.13
2023-03-29T07:50:05.616Z,100489.50
2023-03-29T07:53:30.417Z,100500.63
2023-03-29T07:56:55.863Z,100498.06
2023-03-29T08:00:21.295Z,100487.84
2023-03-29T08:03:48.495Z,100484.41
2023-03-29T08:07:13.490Z,100500.66
2023-03-29T08:10:37.457Z,100497.22
2023-03-29T08:14:03.438Z,100498.03
2023-03-29T08:17:28.152Z,100505.69
2023-03-29T08:20:55.465Z,100506.50
2023-03-29T08:24:20.912Z,100508.19
2023-03-29T08:27:46.342Z,100493.63
2023-03-29T08:31:12.611Z,100509.84
2023-03-29T08:34:37.275Z,100517.53
2023-03-29T08:38:04.433Z,100510.72
2023-03-29T08:41:40.604Z,100515.88
2023-03-29T08:45:12.267Z,100525.31
2023-03-29T08:48:43.164Z,100527.88
2023-03-29T08:52:18.466Z,100520.19
2023-03-29T08:55:48.691Z,100527.88
2023-03-29T08:59:22.626Z,100527.06
2023-03-29T09:02:48.680Z,100528.78
2023-03-29T09:06:15.599Z,100524.56
2023-03-29T09:09:42.252Z,100535.69
2023-03-29T09:13:32.725Z,100536.56
2023-03-29T09:17:04.105Z,100537.44
2023-03-29T09:20:42.326Z,100540.84
2023-03-29T09:24:24.644Z,100545.13
2023-03-29T09:27:57.634Z,100547.66
2023-03-29T09:31:29.778Z,100545.88
2023-03-29T09:35:05.217Z,100545.00
2023-03-29T09:38:33.346Z,100539.81
2023-03-29T09:42:04.386Z,100534.63
2023-03-29T09:45:31.697Z,100544.88
2023-03-29T09:49:00.034Z,100549.19
2023-03-29T09:52:25.351Z,100542.34
2023-03-29T09:55:52.430Z,100544.09
2023-03-29T09:59:17.520Z,100531.28
2023-03-29T10:02:42.877Z,100551.78
2023-03-29T10:06:12.751Z,100545.81
2023-03-29T10:09:38.375Z,100551.78
2023-03-29T10:13:07.379Z,100548.31
2023-03-29T10:16:34.898Z,100555.16
2023-03-29T10:20:04.251Z,100558.56
2023-03-29T10:23:35.414Z,100556.88
2023-03-29T10:27:03.400Z,100562.88
2023-03-29T10:30:30.445Z,100550.00
2023-03-29T10:33:58.432Z,100556.84
2023-03-29T10:37:24.863Z,100560.25
2023-03-29T10:40:53.471Z,100561.03
2023-03-29T10:44:34.231Z,100557.56
2023-03-29T10:48:00.700Z,100546.38
2023-03-29T10:51:28.366Z,100560.88
2023-03-29T10:54:56.591Z,100561.75
2023-03-29T10:58:35.262Z,100553.94
2023-03-29T11:02:32.488Z,100543.56
2023-03-29T11:06:05.418Z,100528.97
2023-03-29T11:09:46.402Z,100535.81
2023-03-29T11:13:20.415Z,100547.84
2023-03-29T11:16:54.640Z,100552.16
2023-03-29T11:20:30.398Z,100549.41
2023-03-29T11:24:25.221Z,100544.97
2023-03-29T11:28:00.658Z,100538.84
2023-03-29T11:31:37.985Z,100544.06
2023-03-29T11:35:22.234Z,100550.13
2023-03-29T11:38:58.695Z,100505.69
2023-03-29T11:42:28.511Z,100539.69
2023-03-29T11:45:57.517Z,100539.69
2023-03-29T11:49:28.358Z,100542.25
2023-03-29T11:53:00.597Z,100535.34
2023-03-29T11:56:31.725Z,100533.56
2023-03-29T12:00:05.458Z,100523.91
2023-03-29T12:03:44.756Z,100523.72
2023-03-29T12:07:20.714Z,100526.09
2023-03-29T12:10:55.444Z,100532.06
2023-03-29T12:14:26.059Z,100530.06
2023-03-29T12:18:03.471Z,100531.63
2023-03-29T12:21:32.686Z,100522.94
2023-03-29T12:24:59.464Z,100518.72
2023-03-29T12:28:57.416Z,100542.03
2023-03-29T12:33:00.599Z,100521.53
2023-03-29T12:36:48.981Z,100530.88
2023-03-29T12:40:18.388Z,100537.59
2023-03-29T12:43:45.754Z,100544.44
2023-03-29T12:47:21.258Z,100529.16
2023-03-29T12:50:50.523Z,100537.94
2023-03-29T12:54:20.439Z,100532.22
2023-03-29T12:57:48.446Z,100521.97
2023-03-29T13:01:29.121Z,100540.69
2023-03-29T13:04:58.438Z,100541.63
2023-03-29T13:08:31.195Z,100541.66
2023-03-29T13:11:57.538Z,100549.38
2023-03-29T13:15:28.384Z,100552.81
2023-03-29T13:19:21.436Z,100546.69
2023-03-29T13:22:59.456Z,100540.66
2023-03-29T13:26:35.728Z,100549.19
2023-03-29T13:30:23.778Z,100542.28
2023-03-29T13:34:00.461Z,100564.53
2023-03-29T13:37:40.728Z,100543.94
2023-03-29T13:41:08.187Z,100563.63
2023-03-29T13:44:46.416Z,100562.81
2023-03-29T13:48:29.791Z,100564.53
2023-03-29T13:52:10.434Z,100557.78
2023-03-29T13:55:44.779Z,100558.66
2023-03-29T13:59:17.741Z,100560.56
2023-03-29T14:02:49.668Z,100561.34
2023-03-29T14:06:18.816Z,100560.53
2023-03-29T14:09:47.006Z,100564.81
2023-03-29T14:13:16.722Z,100567.38
2023-03-29T14:16:44.263Z,100554.66
2023-03-29T14:20:13.799Z,100566.75
2023-03-29T14:23:42.697Z,100565.97
2023-03-29T14:27:10.672Z,100581.50
2023-03-29T14:30:37.023Z,100572.09
2023-03-29T14:34:04.478Z,100569.59
2023-03-29T14:37:32.781Z,100573.88
2023-03-29T14:41:02.922Z,100557.66
2023-03-29T14:44:32.313Z,100555.09
2023-03-29T14:47:58.777Z,100574.00
2023-03-29T14:51:28.260Z,100570.63
2023-03-29T14:54:57.770Z,100575.75
2023-03-29T14:58:25.655Z,100546.72
2023-03-29T15:01:51.014Z,100562.94
2023-03-29T15:05:39.647Z,100571.56
2023-03-29T15:09:07.086Z,100575.84
2023-03-29T15:12:34.657Z,100571.53
2023-03-29T15:16:05.145Z,100573.28
2023-03-29T15:19:32.660Z,100563.09
2023-03-29T15:23:04.642Z,100565.69
2023-03-29T15:26:32.929Z,100575.97
2023-03-29T15:30:04.735Z,100580.28
2023-03-29T15:33:38.664Z,100566.59
2023-03-29T15:37:04.829Z,100576.94
2023-03-29T15:40:30.629Z,100588.97
2023-03-29T15:43:55.471Z,100595.88
2023-03-29T15:47:18.838Z,100599.34
2023-03-29T15:50:42.825Z,100597.69
2023-03-29T15:54:08.552Z,100595.13
2023-03-29T15:57:34.576Z,100607.19
2023-03-29T16:01:03.410Z,100602.91
2023-03-29T16:04:30.435Z,100617.53
2023-03-29T16:07:55.472Z,100603.06
2023-03-29T16:11:18.811Z,100623.63
2023-03-29T16:14:46.203Z,100626.19
2023-03-29T16:18:11.918Z,100614.25
2023-03-29T16:21:38.467Z,100617.69
2023-03-29T16:25:06.116Z,100612.63
2023-03-29T16:28:30.523Z,100616.94
2023-03-29T16:31:57.745Z,100628.06
2023-03-29T16:35:28.515Z,100628.91
2023-03-29T16:38:52.512Z,100611.84
2023-03-29T16:42:19.240Z,100628.97
2023-03-29T16:45:43.176Z,100628.16
2023-03-29T16:49:09.676Z,100630.75
2023-03-29T16:52:34.468Z,100630.75
2023-03-29T16:55:59.785Z,100632.50
2023-03-29T16:59:26.025Z,100634.22
2023-03-29T17:02:51.687Z,100633.38
2023-03-29T17:06:18.600Z,100641.09
2023-03-29T17:09:42.782Z,100640.25
2023-03-29T17:13:08.510Z,100634.28
2023-03-29T17:16:33.556Z,100634.28
2023-03-29T17:20:00.200Z,100642.84
2023-03-29T17:23:25.685Z,100640.25
2023-03-29T17:26:49.771Z,100642.84
2023-03-29T17:30:17.640Z,100623.13
2023-03-29T17:33:42.753Z,100649.66
2023-03-29T17:37:06.638Z,100656.50
2023-03-29T17:40:34.105Z,100660.78
2023-03-29T17:43:58.701Z,100653.06
2023-03-29T17:47:22.687Z,100656.50
2023-03-29T17:50:47.794Z,100658.16
2023-03-29T17:54:13.523Z,100653.03
2023-03-29T17:57:40.580Z,100666.72
2023-03-29T18:01:11.415Z,100631.56
2023-03-29T18:04:36.026Z,100670.94
2023-03-29T18:08:00.717Z,100670.94
2023-03-29T18:11:26.652Z,100666.66
2023-03-29T18:14:52.988Z,100662.34
2023-03-29T18:18:18.713Z,100674.25
2023-03-29T18:21:43.629Z,100673.38
2023-03-29T18:25:09.855Z,100677.63
2023-03-29T18:28:34.663Z,100669.03
2023-03-29T18:32:03.768Z,100659.56
2023-03-29T18:35:28.694Z,100678.38
2023-03-29T18:38:54.505Z,100680.06
2023-03-29T18:42:18.687Z,100656.91
2023-03-29T18:45:43.711Z,100673.13
2023-03-29T18:49:10.556Z,100678.22
2023-03-29T18:52:34.656Z,100682.44
2023-03-29T18:55:59.647Z,100651.56
2023-03-29T18:59:23.632Z,100687.53
2023-03-29T19:02:48.816Z,100678.91
2023-03-29T19:06:16.713Z,100678.84
2023-03-29T19:09:42.033Z,100676.25
2023-03-29T19:13:08.168Z,100682.19
2023-03-29T19:16:32.566Z,100688.97
2023-03-29T19:19:57.057Z,100695.75
2023-03-29T19:23:23.120Z,100700.00
2023-03-29T19:26:49.262Z,100690.53
2023-03-29T19:30:13.722Z,100697.31
2023-03-29T19:33:38.762Z,100700.72
2023-03-29T19:37:03.432Z,100705.81
2023-03-29T19:40:28.635Z,100698.91
2023-03-29T19:43:54.565Z,100706.53
2023-03-29T19:47:18.553Z,100689.44
2023-03-29T19:50:44.297Z,100705.59
2023-03-29T19:54:09.107Z,100697.00
2023-03-29T19:57:35.786Z,100666.09
2023-03-29T20:01:00.931Z,100699.50
2023-03-29T20:04:26.821Z,100701.16
2023-03-29T20:07:50.541Z,100701.09
2023-03-29T20:11:16.161Z,100690.81
2023-03-29T20:14:43.935Z,100695.88
2023-03-29T20:18:08.997Z,100694.09
2023-03-29T20:21:34.564Z,100694.03
2023-03-29T20:24:58.560Z,100699.97
2023-03-29T20:28:22.385Z,100697.28
2023-03-29T20:31:48.584Z,100689.50
2023-03-29T20:35:13.573Z,100693.00
2023-03-29T20:38:39.101Z,100674.91
2023-03-29T20:42:04.714Z,100702.25
2023-03-29T20:45:28.968Z,100679.09
2023-03-29T20:48:55.767Z,100688.50
2023-03-29T20:52:21.792Z,100686.72
2023-03-29T20:55:47.001Z,100690.03
2023-03-29T20:59:13.749Z,100664.28
2023-03-29T21:02:38.913Z,100671.06
2023-03-29T21:06:04.584Z,100679.66
2023-03-29T21:09:28.770Z,100658.97
2023-03-29T21:12:55.013Z,100683.84
2023-03-29T21:17:27.832Z,100680.38
2023-03-29T21:20:53.020Z,100663.25
2023-03-29T21:24:18.823Z,100684.53
2023-03-29T21:27:43.726Z,100665.59
2023-03-29T21:31:07.926Z,100686.16
2023-03-29T21:34:32.235Z,100675.81
2023-03-29T21:37:56.951Z,100682.59
2023-03-29T21:41:24.400Z,100692.81
2023-03-29T21:44:50.032Z,100683.38
2023-03-29T21:48:14.119Z,100685.06
2023-03-29T21:51:39.117Z,100685.06
2023-03-29T21:55:02.974Z,100690.94
2023-03-29T21:58:28.888Z,100689.19
2023-03-29T22:01:53.887Z,100676.38
2023-03-29T22:05:19.198Z,100678.97
2023-03-29T22:08:45.592Z,100672.97
2023-03-29T22:12:10.624Z,100679.72
2023-03-29T22:15:37.920Z,100688.28
2023-03-29T22:19:02.256Z,100685.72
2023-03-29T22:22:26.453Z,100692.53
2023-03-29T22:25:51.008Z,100690.84
2023-03-29T22:29:15.142Z,100679.72
2023-03-29T22:32:40.779Z,100671.19
2023-03-29T22:36:14.605Z,100678.13
2023-03-29T22:39:39.885Z,100675.47
2023-03-29T22:43:05.428Z,100680.72
2023-03-29T22:46:30.645Z,100679.00
2023-03-29T22:49:56.846Z,100676.56
2023-03-29T22:53:20.938Z,100662.91
2023-03-29T22:56:44.946Z,100673.25
2023-03-29T23:00:10.950Z,100680.19
2023-03-29T23:03:36.065Z,100680.25
2023-03-29T23:07:02.707Z,100670.97
2023-03-29T23:10:31.610Z,100681.19
2023-03-29T23:13:55.897Z,100658.16
2023-03-29T23:17:20.190Z,100674.53
2023-03-29T23:20:44.888Z,100676.34
2023-03-29T23:24:10.621Z,100677.22
2023-03-29T23:27:34.083Z,100677.31
2023-03-29T23:30:59.108Z,100671.34
2023-03-29T23:34:22.881Z,100674.84
2023-03-29T23:37:50.349Z,100674.03
2023-03-29T23:41:18.320Z,100659.50
2023-03-29T23:44:42.211Z,100649.28
2023-03-29T23:48:06.822Z,100646.69
2023-03-29T23:51:30.445Z,100663.91
2023-03-29T23:54:55.077Z,100664.03
2023-03-29T23:58:21.207Z,100664.88
